Terminal Aerodrome Forecast
Issued by NWS

Home | Current Version | Previous Version | Text Only | Print | Product List | Glossary On
Versions: 1 2 3 4 5 6 7 8 9 10 11 12 13 14 15 16 17 18 19 20 21 22 23 24 25 26 27 28 29 30 31 32 33 34
000
FTUS41 KALY 232327
TAFPSF
TAF
KPSF 232327Z 2400/2424 27005KT P6SM SKC
     FM240600 00000KT P6SM BKN120
     FM241100 19006KT P6SM VCSH OVC100
     FM241400 20011G23KT 1SM -SN BR OVC035
     FM241500 20013G24KT 2SM -FZRASNPL BR OVC020
     FM241700 20013G25KT 3SM -FZRAPL BR OVC012
     FM241800 20012G20KT P6SM VCSH OVC020=

USA.gov is the U.S. government's official web portal to all federal, state and local government web resources and services.